Terminal Aerodrome Forecast
Issued by NWS Billings, MT

Home | Current Version | Previous Version | Text Only | Print | Product List | Glossary On
Versions: 1 2 3 4 5 6 7 8 9 10 11 12 13 14 15 16 17 18 19 20 21 22 23 24 25 26 27 28 29 30 31 32 33 34 35 36 37 38 39 40 41 42 43 44 45 46 47 48 49 50
000
FTUS45 KBYZ 262137 AAD
TAFSHR
TAF AMD
KSHR 262137Z 2622/2718 08003KT 2SM -SN BR FEW005 BKN025
      TEMPO 2622/2623 1SM -SN BR SCT025 BKN035
     FM262300 00000KT 4SM -SN BR SCT025 OVC040
     FM270000 00000KT P6SM FEW030 SCT050 WS020/30030KT
     FM270600 VRB04KT P6SM FEW080 SCT100
     FM271600 26007KT P6SM SCT100=

USA.gov is the U.S. government's official web portal to all federal, state and local government web resources and services.